sensor_id;sensor_type;location;lat;lon;timestamp;pressure;altitude;pressure_sealevel;temperature;humidity
13974;BME280;7060;43.770;4.008;2022-11-15T00:00:47;100914.38;;;12.37;87.25
13974;BME280;7060;43.770;4.008;2022-11-15T00:08:07;100886.78;;;12.45;86.52
13974;BME280;7060;43.770;4.008;2022-11-15T00:11:01;100913.28;;;12.48;86.14
13974;BME280;7060;43.770;4.008;2022-11-15T00:13:50;100967.69;;;12.94;86.37
13974;BME280;7060;43.770;4.008;2022-11-15T00:16:48;100896.03;;;12.50;86.07
13974;BME280;7060;43.770;4.008;2022-11-15T00:19:36;100964.16;;;12.93;86.35
13974;BME280;7060;43.770;4.008;2022-11-15T00:25:57;100762.19;;;11.78;85.99
13974;BME280;7060;43.770;4.008;2022-11-15T00:28:57;100958.28;;;12.98;85.94
13974;BME280;7060;43.770;4.008;2022-11-15T00:31:49;100806.44;;;12.00;85.94
13974;BME280;7060;43.770;4.008;2022-11-15T00:34:50;100948.72;;;12.95;85.98
13974;BME280;7060;43.770;4.008;2022-11-15T00:37:38;100860.34;;;12.50;85.91
13974;BME280;7060;43.770;4.008;2022-11-15T00:40:31;100927.44;;;12.94;86.01
13974;BME280;7060;43.770;4.008;2022-11-15T00:43:20;100773.03;;;11.94;86.21
13974;BME280;7060;43.770;4.008;2022-11-15T00:46:37;100946.03;;;12.95;85.94
13974;BME280;7060;43.770;4.008;2022-11-15T00:49:26;100880.78;;;12.51;86.34
13974;BME280;7060;43.770;4.008;2022-11-15T00:52:18;100961.34;;;13.03;86.19
13974;BME280;7060;43.770;4.008;2022-11-15T00:55:07;100961.06;;;13.06;86.26
13974;BME280;7060;43.770;4.008;2022-11-15T00:58:27;100967.09;;;13.08;85.37
13974;BME280;7060;43.770;4.008;2022-11-15T01:12:16;100971.47;;;13.09;85.63
13974;BME280;7060;43.770;4.008;2022-11-15T01:15:31;100965.56;;;13.05;85.31
13974;BME280;7060;43.770;4.008;2022-11-15T01:18:19;100949.75;;;12.94;85.63
13974;BME280;7060;43.770;4.008;2022-11-15T01:21:08;100914.44;;;12.63;85.31
13974;BME280;7060;43.770;4.008;2022-11-15T01:23:56;100895.19;;;12.50;85.63
13974;BME280;7060;43.770;4.008;2022-11-15T01:27:11;100956.16;;;13.01;84.93
13974;BME280;7060;43.770;4.008;2022-11-15T01:30:00;100736.91;;;11.63;85.44
13974;BME280;7060;43.770;4.008;2022-11-15T01:32:50;100956.75;;;12.95;85.57
13974;BME280;7060;43.770;4.008;2022-11-15T01:35:40;100849.72;;;12.23;85.39
13974;BME280;7060;43.770;4.008;2022-11-15T01:38:34;100793.47;;;12.13;84.91
13974;BME280;7060;43.770;4.008;2022-11-15T01:41:24;100837.66;;;12.44;85.31
13974;BME280;7060;43.770;4.008;2022-11-15T01:44:43;100726.13;;;11.90;84.84
13974;BME280;7060;43.770;4.008;2022-11-15T01:47:35;100741.13;;;12.01;84.94
13974;BME280;7060;43.770;4.008;2022-11-15T01:50:30;100858.22;;;12.79;85.01
13974;BME280;7060;43.770;4.008;2022-11-15T01:53:21;100800.25;;;12.61;84.97
13974;BME280;7060;43.770;4.008;2022-11-15T01:56:14;100784.56;;;12.48;84.97
13974;BME280;7060;43.770;4.008;2022-11-15T01:59:06;100872.63;;;13.04;84.21
13974;BME280;7060;43.770;4.008;2022-11-15T02:02:08;100753.91;;;12.25;84.24
13974;BME280;7060;43.770;4.008;2022-11-15T02:05:00;100893.47;;;13.10;84.11
13974;BME280;7060;43.770;4.008;2022-11-15T02:08:02;100664.63;;;11.80;84.01
13974;BME280;7060;43.770;4.008;2022-11-15T02:10:51;100690.22;;;12.01;84.32
13974;BME280;7060;43.770;4.008;2022-11-15T02:13:40;100853.91;;;12.86;84.05
13974;BME280;7060;43.770;4.008;2022-11-15T02:16:38;100650.09;;;11.65;83.83
13974;BME280;7060;43.770;4.008;2022-11-15T02:19:47;100895.91;;;13.21;83.90
13974;BME280;7060;43.770;4.008;2022-11-15T02:23:00;100884.66;;;13.18;83.80
13974;BME280;7060;43.770;4.008;2022-11-15T02:26:07;100806.50;;;12.69;84.03
13974;BME280;7060;43.770;4.008;2022-11-15T02:29:05;100877.91;;;13.14;84.57
13974;BME280;7060;43.770;4.008;2022-11-15T02:32:06;100631.78;;;11.61;83.94
13974;BME280;7060;43.770;4.008;2022-11-15T02:35:02;100430.13;;;10.47;83.74
13974;BME280;7060;43.770;4.008;2022-11-15T02:38:15;100725.94;;;12.27;84.17
13974;BME280;7060;43.770;4.008;2022-11-15T02:41:08;100710.63;;;12.19;84.37
13974;BME280;7060;43.770;4.008;2022-11-15T02:44:01;100793.91;;;12.62;84.49
13974;BME280;7060;43.770;4.008;2022-11-15T02:46:52;100863.47;;;13.15;84.25
13974;BME280;7060;43.770;4.008;2022-11-15T02:50:23;100860.13;;;13.13;84.00
13974;BME280;7060;43.770;4.008;2022-11-15T02:53:14;100854.91;;;13.11;84.44
13974;BME280;7060;43.770;4.008;2022-11-15T02:56:20;100839.44;;;13.05;83.96
13974;BME280;7060;43.770;4.008;2022-11-15T02:59:17;100835.91;;;13.05;84.50
13974;BME280;7060;43.770;4.008;2022-11-15T03:02:25;100664.94;;;12.03;84.18
13974;BME280;7060;43.770;4.008;2022-11-15T03:05:25;100750.63;;;12.57;84.21
13974;BME280;7060;43.770;4.008;2022-11-15T03:08:22;100752.13;;;12.59;84.06
13974;BME280;7060;43.770;4.008;2022-11-15T03:11:15;100651.56;;;12.03;84.00
13974;BME280;7060;43.770;4.008;2022-11-15T03:14:21;100737.16;;;12.48;83.66
13974;BME280;7060;43.770;4.008;2022-11-15T03:17:45;100807.00;;;12.99;83.52
13974;BME280;7060;43.770;4.008;2022-11-15T03:20:36;100598.66;;;11.62;83.70
13974;BME280;7060;43.770;4.008;2022-11-15T03:23:26;100802.63;;;12.98;83.66
13974;BME280;7060;43.770;4.008;2022-11-15T03:26:23;100562.97;;;11.53;83.88
13974;BME280;7060;43.770;4.008;2022-11-15T03:29:41;100789.38;;;12.96;83.80
13974;BME280;7060;43.770;4.008;2022-11-15T03:35:50;100781.00;;;12.91;84.11
13974;BME280;7060;43.770;4.008;2022-11-15T03:38:50;100693.38;;;12.40;83.80
13974;BME280;7060;43.770;4.008;2022-11-15T03:41:47;100783.53;;;12.93;84.09
13974;BME280;7060;43.770;4.008;2022-11-15T03:44:45;100787.69;;;12.95;83.91
13974;BME280;7060;43.770;4.008;2022-11-15T03:47:42;100766.41;;;12.94;83.76
13974;BME280;7060;43.770;4.008;2022-11-15T03:50:42;100705.50;;;12.52;83.80
13974;BME280;7060;43.770;4.008;2022-11-15T03:53:33;100700.75;;;12.46;83.77
13974;BME280;7060;43.770;4.008;2022-11-15T03:56:33;100726.88;;;12.70;84.14
13974;BME280;7060;43.770;4.008;2022-11-15T03:59:22;100760.22;;;12.93;84.19
13974;BME280;7060;43.770;4.008;2022-11-15T04:02:09;100460.50;;;11.17;83.97
13974;BME280;7060;43.770;4.008;2022-11-15T04:04:57;100517.00;;;11.58;83.85
13974;BME280;7060;43.770;4.008;2022-11-15T04:08:16;100727.31;;;12.91;84.10
13974;BME280;7060;43.770;4.008;2022-11-15T04:11:05;100740.44;;;12.94;83.90
13974;BME280;7060;43.770;4.008;2022-11-15T04:13:59;100639.09;;;12.46;83.91
13974;BME280;7060;43.770;4.008;2022-11-15T04:16:48;100626.00;;;12.43;83.93
13974;BME280;7060;43.770;4.008;2022-11-15T04:23:48;100694.44;;;12.89;83.93
13974;BME280;7060;43.770;4.008;2022-11-15T04:26:59;100618.31;;;12.40;83.42
13974;BME280;7060;43.770;4.008;2022-11-15T04:29:59;100624.69;;;12.47;83.73
13974;BME280;7060;43.770;4.008;2022-11-15T04:32:52;100709.41;;;13.00;83.68
13974;BME280;7060;43.770;4.008;2022-11-15T04:35:41;100585.94;;;12.07;83.74
13974;BME280;7060;43.770;4.008;2022-11-15T04:38:33;100652.44;;;12.64;83.93
13974;BME280;7060;43.770;4.008;2022-11-15T04:41:21;100660.63;;;12.62;83.80
13974;BME280;7060;43.770;4.008;2022-11-15T04:44:41;100726.41;;;13.16;83.39
13974;BME280;7060;43.770;4.008;2022-11-15T04:48:01;100725.75;;;13.14;83.35
13974;BME280;7060;43.770;4.008;2022-11-15T04:54:51;100727.19;;;13.01;83.13
13974;BME280;7060;43.770;4.008;2022-11-15T05:01:33;100725.66;;;12.98;83.32
13974;BME280;7060;43.770;4.008;2022-11-15T05:04:29;100718.66;;;13.64;80.46
13974;BME280;7060;43.770;4.008;2022-11-15T05:07:15;100479.50;;;11.92;81.81
13974;BME280;7060;43.770;4.008;2022-11-15T05:10:03;100683.41;;;13.00;82.39
13974;BME280;7060;43.770;4.008;2022-11-15T05:12:50;100625.75;;;12.62;82.30
13974;BME280;7060;43.770;4.008;2022-11-15T05:15:37;100729.75;;;13.10;81.99
13974;BME280;7060;43.770;4.008;2022-11-15T05:18:27;100712.81;;;13.10;82.20
13974;BME280;7060;43.770;4.008;2022-11-15T05:21:14;100676.78;;;12.78;81.99
13974;BME280;7060;43.770;4.008;2022-11-15T05:24:02;100644.91;;;12.67;81.78
13974;BME280;7060;43.770;4.008;2022-11-15T05:26:49;100619.00;;;12.50;81.66
13974;BME280;7060;43.770;4.008;2022-11-15T05:29:36;100704.22;;;13.06;81.60
13974;BME280;7060;43.770;4.008;2022-11-15T05:32:23;100663.38;;;12.78;81.84
13974;BME280;7060;43.770;4.008;2022-11-15T05:35:13;100554.94;;;12.13;81.86
13974;BME280;7060;43.770;4.008;2022-11-15T05:38:02;100468.47;;;11.61;81.51
13974;BME280;7060;43.770;4.008;2022-11-15T05:40:49;100704.72;;;13.02;81.79
13974;BME280;7060;43.770;4.008;2022-11-15T05:43:38;100701.72;;;13.05;81.71
13974;BME280;7060;43.770;4.008;2022-11-15T05:46:28;100688.13;;;13.06;81.85
13974;BME280;7060;43.770;4.008;2022-11-15T05:49:19;100682.41;;;12.93;81.67
13974;BME280;7060;43.770;4.008;2022-11-15T05:52:10;100661.41;;;12.88;81.22
13974;BME280;7060;43.770;4.008;2022-11-15T05:54:59;100674.00;;;12.96;81.61
13974;BME280;7060;43.770;4.008;2022-11-15T05:57:45;100687.13;;;13.07;81.87
13974;BME280;7060;43.770;4.008;2022-11-15T06:00:33;100683.78;;;13.13;81.48
13974;BME280;7060;43.770;4.008;2022-11-15T06:03:20;100514.16;;;12.19;81.24
13974;BME280;7060;43.770;4.008;2022-11-15T06:06:08;100428.81;;;11.64;80.80
13974;BME280;7060;43.770;4.008;2022-11-15T06:09:02;100628.53;;;12.86;81.49
13974;BME280;7060;43.770;4.008;2022-11-15T06:11:49;100669.19;;;13.08;81.50
13974;BME280;7060;43.770;4.008;2022-11-15T06:14:36;100664.50;;;13.10;81.56
13974;BME280;7060;43.770;4.008;2022-11-15T06:17:23;100663.13;;;13.06;81.65
13974;BME280;7060;43.770;4.008;2022-11-15T06:20:10;100671.19;;;13.06;81.72
13974;BME280;7060;43.770;4.008;2022-11-15T06:22:57;100624.13;;;12.77;81.55
13974;BME280;7060;43.770;4.008;2022-11-15T06:25:47;100652.03;;;12.93;81.60
13974;BME280;7060;43.770;4.008;2022-11-15T06:28:34;100544.47;;;12.19;81.40
13974;BME280;7060;43.770;4.008;2022-11-15T06:31:21;100572.38;;;12.35;81.77
13974;BME280;7060;43.770;4.008;2022-11-15T06:34:08;100629.81;;;12.74;81.29
13974;BME280;7060;43.770;4.008;2022-11-15T06:36:55;100623.09;;;12.70;81.45
13974;BME280;7060;43.770;4.008;2022-11-15T06:39:42;100637.03;;;12.74;81.30
13974;BME280;7060;43.770;4.008;2022-11-15T06:42:31;100645.44;;;12.79;81.82
13974;BME280;7060;43.770;4.008;2022-11-15T06:45:17;100586.75;;;12.34;81.48
13974;BME280;7060;43.770;4.008;2022-11-15T06:48:05;100619.03;;;12.58;81.47
13974;BME280;7060;43.770;4.008;2022-11-15T06:50:53;100677.66;;;12.95;81.83
13974;BME280;7060;43.770;4.008;2022-11-15T06:53:40;100593.81;;;12.43;81.87
13974;BME280;7060;43.770;4.008;2022-11-15T06:56:27;100687.75;;;13.01;81.72
13974;BME280;7060;43.770;4.008;2022-11-15T06:59:15;100690.28;;;13.03;81.92
13974;BME280;7060;43.770;4.008;2022-11-15T07:02:03;100679.72;;;13.01;81.66
13974;BME280;7060;43.770;4.008;2022-11-15T07:04:50;100702.75;;;13.12;81.67
13974;BME280;7060;43.770;4.008;2022-11-15T07:07:37;100676.88;;;13.03;81.08
13974;BME280;7060;43.770;4.008;2022-11-15T07:10:25;100685.31;;;13.16;81.18
13974;BME280;7060;43.770;4.008;2022-11-15T07:13:13;100606.00;;;12.63;80.92
13974;BME280;7060;43.770;4.008;2022-11-15T07:16:03;100685.47;;;13.14;80.87
13974;BME280;7060;43.770;4.008;2022-11-15T07:18:50;100684.63;;;13.14;81.35
13974;BME280;7060;43.770;4.008;2022-11-15T07:21:37;100652.72;;;12.95;81.25
13974;BME280;7060;43.770;4.008;2022-11-15T07:24:25;100688.16;;;13.14;81.54
13974;BME280;7060;43.770;4.008;2022-11-15T07:27:12;100653.38;;;12.97;81.43
13974;BME280;7060;43.770;4.008;2022-11-15T07:30:00;100687.63;;;13.11;81.78
13974;BME280;7060;43.770;4.008;2022-11-15T07:32:52;100671.88;;;13.16;81.37
13974;BME280;7060;43.770;4.008;2022-11-15T07:35:39;100670.22;;;13.15;81.35
13974;BME280;7060;43.770;4.008;2022-11-15T07:38:28;100678.25;;;13.15;81.61
13974;BME280;7060;43.770;4.008;2022-11-15T07:41:15;100685.31;;;13.16;81.37
13974;BME280;7060;43.770;4.008;2022-11-15T07:44:02;100678.25;;;13.15;81.67
13974;BME280;7060;43.770;4.008;2022-11-15T07:46:49;100660.28;;;13.07;81.45
13974;BME280;7060;43.770;4.008;2022-11-15T07:49:38;100570.59;;;12.60;81.04
13974;BME280;7060;43.770;4.008;2022-11-15T07:52:25;100690.50;;;13.26;81.46
13974;BME280;7060;43.770;4.008;2022-11-15T07:55:12;100636.97;;;13.08;81.39
13974;BME280;7060;43.770;4.008;2022-11-15T07:58:02;100649.06;;;13.12;81.33
13974;BME280;7060;43.770;4.008;2022-11-15T08:00:49;100673.91;;;13.30;81.08
13974;BME280;7060;43.770;4.008;2022-11-15T08:03:36;100609.41;;;12.98;80.94
13974;BME280;7060;43.770;4.008;2022-11-15T08:06:24;100638.00;;;13.15;81.42
13974;BME280;7060;43.770;4.008;2022-11-15T08:09:12;100605.91;;;12.97;81.48
13974;BME280;7060;43.770;4.008;2022-11-15T08:12:00;100662.50;;;13.28;81.28
13974;BME280;7060;43.770;4.008;2022-11-15T08:14:47;100656.47;;;13.26;81.78
13974;BME280;7060;43.770;4.008;2022-11-15T08:17:34;100579.88;;;12.81;81.71
13974;BME280;7060;43.770;4.008;2022-11-15T08:20:22;100516.06;;;12.43;81.57
13974;BME280;7060;43.770;4.008;2022-11-15T08:23:11;100649.75;;;13.22;81.76
13974;BME280;7060;43.770;4.008;2022-11-15T08:26:02;100647.06;;;13.22;81.69
13974;BME280;7060;43.770;4.008;2022-11-15T08:28:49;100642.53;;;13.22;81.73
13974;BME280;7060;43.770;4.008;2022-11-15T08:31:36;100618.19;;;13.08;81.76
13974;BME280;7060;43.770;4.008;2022-11-15T08:34:24;100632.63;;;13.23;81.55
13974;BME280;7060;43.770;4.008;2022-11-15T08:37:11;100637.81;;;13.24;81.90
13974;BME280;7060;43.770;4.008;2022-11-15T08:39:59;100636.66;;;13.27;81.71
13974;BME280;7060;43.770;4.008;2022-11-15T08:42:46;100635.66;;;13.28;81.76
13974;BME280;7060;43.770;4.008;2022-11-15T08:45:34;100635.66;;;13.28;81.76
13974;BME280;7060;43.770;4.008;2022-11-15T08:48:22;100625.59;;;13.30;81.49
13974;BME280;7060;43.770;4.008;2022-11-15T08:51:09;100618.03;;;13.26;81.58
13974;BME280;7060;43.770;4.008;2022-11-15T08:53:56;100626.94;;;13.34;81.55
13974;BME280;7060;43.770;4.008;2022-11-15T08:56:44;100626.44;;;13.39;81.18
13974;BME280;7060;43.770;4.008;2022-11-15T08:59:32;100633.03;;;13.44;81.08
13974;BME280;7060;43.770;4.008;2022-11-15T09:02:19;100630.69;;;13.49;81.31
13974;BME280;7060;43.770;4.008;2022-11-15T09:05:07;100635.22;;;13.41;81.01
13974;BME280;7060;43.770;4.008;2022-11-15T09:07:55;100623.97;;;13.45;80.91
13974;BME280;7060;43.770;4.008;2022-11-15T09:10:41;100629.16;;;13.55;81.07
13974;BME280;7060;43.770;4.008;2022-11-15T09:13:30;100632.53;;;13.57;80.86
13974;BME280;7060;43.770;4.008;2022-11-15T09:16:17;100620.09;;;13.56;80.83
13974;BME280;7060;43.770;4.008;2022-11-15T09:19:04;100626.31;;;13.56;80.86
13974;BME280;7060;43.770;4.008;2022-11-15T09:21:56;100617.25;;;13.57;80.96
13974;BME280;7060;43.770;4.008;2022-11-15T09:24:43;100631.34;;;13.60;80.95
13974;BME280;7060;43.770;4.008;2022-11-15T09:27:30;100596.91;;;13.39;81.14
13974;BME280;7060;43.770;4.008;2022-11-15T09:30:19;100622.09;;;13.54;81.53
13974;BME280;7060;43.770;4.008;2022-11-15T09:33:07;100525.22;;;12.99;81.82
13974;BME280;7060;43.770;4.008;2022-11-15T09:35:57;100617.06;;;13.51;82.33
13974;BME280;7060;43.770;4.008;2022-11-15T09:38:45;100617.44;;;13.48;82.81
13974;BME280;7060;43.770;4.008;2022-11-15T09:45:10;100596.25;;;13.37;82.84
13974;BME280;7060;43.770;4.008;2022-11-15T09:48:33;100615.91;;;13.45;83.35
13974;BME280;7060;43.770;4.008;2022-11-15T09:51:32;100546.72;;;13.07;83.82
13974;BME280;7060;43.770;4.008;2022-11-15T09:54:05;100606.00;;;13.46;84.00
13974;BME280;7060;43.770;4.008;2022-11-15T09:57:09;100588.34;;;13.27;84.14
13974;BME280;7060;43.770;4.008;2022-11-15T09:59:56;100598.91;;;13.37;83.89
13974;BME280;7060;43.770;4.008;2022-11-15T10:02:58;100577.59;;;13.27;83.92
13974;BME280;7060;43.770;4.008;2022-11-15T10:05:40;100580.13;;;13.29;84.29
13974;BME280;7060;43.770;4.008;2022-11-15T10:08:24;100578.28;;;13.29;84.33
13974;BME280;7060;43.770;4.008;2022-11-15T10:10:56;100594.94;;;13.49;85.02
13974;BME280;7060;43.770;4.008;2022-11-15T10:13:47;100606.53;;;13.49;84.57
13974;BME280;7060;43.770;4.008;2022-11-15T10:16:41;100413.53;;;12.33;84.60
13974;BME280;7060;43.770;4.008;2022-11-15T10:19:20;100554.28;;;13.19;85.19
13974;BME280;7060;43.770;4.008;2022-11-15T10:22:00;100598.09;;;13.52;84.84
13974;BME280;7060;43.770;4.008;2022-11-15T10:24:38;100592.72;;;13.52;84.95
13974;BME280;7060;43.770;4.008;2022-11-15T10:27:11;100589.03;;;13.53;84.65
13974;BME280;7060;43.770;4.008;2022-11-15T10:29:43;100522.06;;;13.19;84.84
13974;BME280;7060;43.770;4.008;2022-11-15T10:32:12;100563.19;;;13.52;84.83
13974;BME280;7060;43.770;4.008;2022-11-15T10:34:42;100552.28;;;13.54;85.22
13974;BME280;7060;43.770;4.008;2022-11-15T10:37:12;100402.16;;;12.63;85.31
13974;BME280;7060;43.770;4.008;2022-11-15T10:39:40;100421.09;;;12.78;85.02
13974;BME280;7060;43.770;4.008;2022-11-15T10:42:16;100543.72;;;13.59;85.29
13974;BME280;7060;43.770;4.008;2022-11-15T10:44:45;100527.59;;;13.59;85.38
13974;BME280;7060;43.770;4.008;2022-11-15T10:47:25;100526.09;;;13.64;84.88
13974;BME280;7060;43.770;4.008;2022-11-15T10:50:05;100515.50;;;13.63;84.87
13974;BME280;7060;43.770;4.008;2022-11-15T10:52:36;100408.00;;;12.99;84.97
13974;BME280;7060;43.770;4.008;2022-11-15T10:55:24;100514.16;;;13.67;84.82
13974;BME280;7060;43.770;4.008;2022-11-15T10:57:55;100417.91;;;13.07;84.86
13974;BME280;7060;43.770;4.008;2022-11-15T11:00:34;100475.72;;;13.50;84.96
13974;BME280;7060;43.770;4.008;2022-11-15T11:03:05;100450.44;;;13.44;84.85
13974;BME280;7060;43.770;4.008;2022-11-15T11:05:36;100483.38;;;13.77;85.06
13974;BME280;7060;43.770;4.008;2022-11-15T11:08:23;100484.22;;;13.78;85.11
13974;BME280;7060;43.770;4.008;2022-11-15T11:10:52;100477.22;;;13.77;85.74
13974;BME280;7060;43.770;4.008;2022-11-15T11:13:29;100473.47;;;13.78;85.71
13974;BME280;7060;43.770;4.008;2022-11-15T11:16:17;100363.53;;;13.21;85.95
13974;BME280;7060;43.770;4.008;2022-11-15T11:18:57;100334.69;;;13.07;86.40
13974;BME280;7060;43.770;4.008;2022-11-15T11:21:41;100359.13;;;13.28;85.94
13974;BME280;7060;43.770;4.008;2022-11-15T11:24:19;100429.66;;;13.77;85.75
13974;BME280;7060;43.770;4.008;2022-11-15T11:27:03;100308.53;;;13.01;85.81
13974;BME280;7060;43.770;4.008;2022-11-15T11:29:48;100156.22;;;12.16;85.57
13974;BME280;7060;43.770;4.008;2022-11-15T11:32:39;100447.41;;;13.95;85.42
13974;BME280;7060;43.770;4.008;2022-11-15T11:35:13;100448.06;;;13.97;85.54
13974;BME280;7060;43.770;4.008;2022-11-15T11:37:46;100439.50;;;14.01;85.54
13974;BME280;7060;43.770;4.008;2022-11-15T11:40:28;100408.97;;;13.86;85.05
13974;BME280;7060;43.770;4.008;2022-11-15T11:43:04;100423.72;;;13.90;85.12
13974;BME280;7060;43.770;4.008;2022-11-15T11:45:52;100418.00;;;13.93;85.32
13974;BME280;7060;43.770;4.008;2022-11-15T11:48:34;100319.34;;;13.32;85.68
13974;BME280;7060;43.770;4.008;2022-11-15T11:51:13;100395.84;;;13.91;85.56
13974;BME280;7060;43.770;4.008;2022-11-15T11:53:48;100398.53;;;13.91;85.83
13974;BME280;7060;43.770;4.008;2022-11-15T11:56:24;100396.03;;;13.89;86.33
13974;BME280;7060;43.770;4.008;2022-11-15T11:58:55;100361.44;;;13.86;86.27
13974;BME280;7060;43.770;4.008;2022-11-15T12:01:29;100177.81;;;12.78;86.33
13974;BME280;7060;43.770;4.008;2022-11-15T12:04:05;100351.97;;;13.99;86.46
13974;BME280;7060;43.770;4.008;2022-11-15T12:06:41;100258.59;;;13.39;86.48
13974;BME280;7060;43.770;4.008;2022-11-15T12:09:17;100353.31;;;14.03;86.72
13974;BME280;7060;43.770;4.008;2022-11-15T12:11:53;100355.81;;;14.04;86.78
13974;BME280;7060;43.770;4.008;2022-11-15T12:14:32;100345.00;;;14.12;87.04
13974;BME280;7060;43.770;4.008;2022-11-15T12:17:02;100222.19;;;13.44;87.24
13974;BME280;7060;43.770;4.008;2022-11-15T12:19:31;100329.34;;;14.16;87.39
13974;BME280;7060;43.770;4.008;2022-11-15T12:22:02;100331.84;;;14.17;87.27
13974;BME280;7060;43.770;4.008;2022-11-15T12:24:35;100302.59;;;14.00;87.00
13974;BME280;7060;43.770;4.008;2022-11-15T12:27:21;100329.78;;;14.28;86.64
13974;BME280;7060;43.770;4.008;2022-11-15T12:29:56;100016.97;;;12.31;86.64
13974;BME280;7060;43.770;4.008;2022-11-15T12:32:28;100332.09;;;14.31;86.56
13974;BME280;7060;43.770;4.008;2022-11-15T12:34:58;100324.88;;;14.31;86.52
13974;BME280;7060;43.770;4.008;2022-11-15T12:40:23;100322.19;;;14.31;86.59
13974;BME280;7060;43.770;4.008;2022-11-15T12:45:45;100310.78;;;14.29;86.10
13974;BME280;7060;43.770;4.008;2022-11-15T12:57:42;100284.25;;;14.26;86.79
13974;BME280;7060;43.770;4.008;2022-11-15T13:00:40;100280.53;;;14.27;86.49
13974;BME280;7060;43.770;4.008;2022-11-15T13:03:25;100272.66;;;14.26;86.79
13974;BME280;7060;43.770;4.008;2022-11-15T13:06:09;100236.97;;;14.09;87.05
13974;BME280;7060;43.770;4.008;2022-11-15T13:08:58;100006.69;;;12.74;87.47
13974;BME280;7060;43.770;4.008;2022-11-15T13:11:57;100244.28;;;14.38;87.10
13974;BME280;7060;43.770;4.008;2022-11-15T13:14:46;100229.94;;;14.45;86.85
13974;BME280;7060;43.770;4.008;2022-11-15T13:17:40;100182.25;;;14.24;86.78
13974;BME280;7060;43.770;4.008;2022-11-15T13:20:22;100235.91;;;14.55;87.05
13974;BME280;7060;43.770;4.008;2022-11-15T13:22:53;100235.56;;;14.59;87.12
13974;BME280;7060;43.770;4.008;2022-11-15T13:26:00;100241.03;;;14.65;86.75
13974;BME280;7060;43.770;4.008;2022-11-15T13:28:33;100239.81;;;14.68;87.05
13974;BME280;7060;43.770;4.008;2022-11-15T13:31:13;100240.94;;;14.73;86.78
13974;BME280;7060;43.770;4.008;2022-11-15T13:33:46;100226.66;;;14.73;86.77
13974;BME280;7060;43.770;4.008;2022-11-15T13:36:18;100186.66;;;14.55;86.71
13974;BME280;7060;43.770;4.008;2022-11-15T13:38:55;100224.81;;;14.73;86.68
13974;BME280;7060;43.770;4.008;2022-11-15T13:41:28;100163.53;;;14.31;86.45
13974;BME280;7060;43.770;4.008;2022-11-15T13:43:58;100224.34;;;14.70;86.59
13974;BME280;7060;43.770;4.008;2022-11-15T13:46:28;100218.75;;;14.71;86.61
13974;BME280;7060;43.770;4.008;2022-11-15T13:48:59;100008.03;;;13.38;86.68
13974;BME280;7060;43.770;4.008;2022-11-15T13:51:32;100218.03;;;14.77;86.57
13974;BME280;7060;43.770;4.008;2022-11-15T13:54:08;100208.38;;;14.83;86.83
13974;BME280;7060;43.770;4.008;2022-11-15T13:56:44;100192.06;;;14.84;86.66
13974;BME280;7060;43.770;4.008;2022-11-15T13:59:21;100041.78;;;13.93;86.38
13974;BME280;7060;43.770;4.008;2022-11-15T14:01:52;100197.03;;;14.87;86.70
13974;BME280;7060;43.770;4.008;2022-11-15T14:04:25;100153.44;;;14.63;86.90
13974;BME280;7060;43.770;4.008;2022-11-15T14:06:58;100102.41;;;14.40;87.35
13974;BME280;7060;43.770;4.008;2022-11-15T14:09:33;100134.72;;;14.69;87.20
13974;BME280;7060;43.770;4.008;2022-11-15T14:12:25;100186.09;;;15.04;87.11
13974;BME280;7060;43.770;4.008;2022-11-15T14:14:54;100182.00;;;15.08;87.48
13974;BME280;7060;43.770;4.008;2022-11-15T14:17:35;100172.53;;;15.12;86.96
13974;BME280;7060;43.770;4.008;2022-11-15T14:20:24;100093.59;;;14.75;86.71
13974;BME280;7060;43.770;4.008;2022-11-15T14:22:55;100115.00;;;14.98;87.06
13974;BME280;7060;43.770;4.008;2022-11-15T14:25:24;100158.94;;;15.20;87.16
13974;BME280;7060;43.770;4.008;2022-11-15T14:28:13;100163.56;;;15.26;86.86
13974;BME280;7060;43.770;4.008;2022-11-15T14:30:43;100148.72;;;15.15;87.01
13974;BME280;7060;43.770;4.008;2022-11-15T14:33:23;100177.75;;;15.35;86.80
13974;BME280;7060;43.770;4.008;2022-11-15T14:35:52;100173.84;;;15.37;86.97
13974;BME280;7060;43.770;4.008;2022-11-15T14:38:22;100170.13;;;15.38;87.30
13974;BME280;7060;43.770;4.008;2022-11-15T14:40:51;100048.63;;;14.69;87.39
13974;BME280;7060;43.770;4.008;2022-11-15T14:43:22;99990.00;;;14.50;88.09
13974;BME280;7060;43.770;4.008;2022-11-15T14:45:50;99987.28;;;14.65;88.18
13974;BME280;7060;43.770;4.008;2022-11-15T14:48:21;100139.66;;;15.59;88.30
13974;BME280;7060;43.770;4.008;2022-11-15T14:50:52;100105.03;;;15.56;87.83
13974;BME280;7060;43.770;4.008;2022-11-15T14:53:21;100092.00;;;15.59;87.26
13974;BME280;7060;43.770;4.008;2022-11-15T14:55:50;100021.66;;;15.27;87.98
13974;BME280;7060;43.770;4.008;2022-11-15T14:58:18;100120.09;;;15.93;87.82
13974;BME280;7060;43.770;4.008;2022-11-15T15:00:48;100001.59;;;15.29;87.42
13974;BME280;7060;43.770;4.008;2022-11-15T15:03:17;100136.38;;;16.06;86.95
13974;BME280;7060;43.770;4.008;2022-11-15T15:05:45;100110.53;;;15.90;86.60
13974;BME280;7060;43.770;4.008;2022-11-15T15:08:14;100135.47;;;15.99;86.16
13974;BME280;7060;43.770;4.008;2022-11-15T15:10:44;100089.25;;;15.74;85.92
13974;BME280;7060;43.770;4.008;2022-11-15T15:13:16;100160.38;;;16.22;85.77
13974;BME280;7060;43.770;4.008;2022-11-15T15:15:49;100071.41;;;15.73;85.58
13974;BME280;7060;43.770;4.008;2022-11-15T15:18:18;100157.66;;;16.22;85.22
13974;BME280;7060;43.770;4.008;2022-11-15T15:20:56;100156.22;;;16.26;85.39
13974;BME280;7060;43.770;4.008;2022-11-15T15:23:27;100029.91;;;15.46;85.33
13974;BME280;7060;43.770;4.008;2022-11-15T15:25:57;100091.63;;;15.84;85.02
13974;BME280;7060;43.770;4.008;2022-11-15T15:28:26;100128.91;;;16.08;84.85
13974;BME280;7060;43.770;4.008;2022-11-15T15:31:02;100022.97;;;15.58;84.38
13974;BME280;7060;43.770;4.008;2022-11-15T15:33:31;100125.13;;;16.31;84.38